createdAt,value
2023-05-09T00:01:31.463Z,30.60
2023-05-09T00:04:00.097Z,31.60
2023-05-09T00:06:29.040Z,35.80
2023-05-09T00:08:57.113Z,33.60
2023-05-09T00:11:25.160Z,30.20
2023-05-09T00:13:53.461Z,33.80
2023-05-09T00:16:24.411Z,34.80
2023-05-09T00:18:54.101Z,21.00
2023-05-09T00:21:22.111Z,26.40
2023-05-09T00:23:50.166Z,21.20
2023-05-09T00:26:18.366Z,26.40
2023-05-09T00:28:46.503Z,28.60
2023-05-09T00:31:14.622Z,28.20
2023-05-09T00:33:42.703Z,33.00
2023-05-09T00:36:12.162Z,27.80
2023-05-09T00:38:40.396Z,35.00
2023-05-09T00:41:08.483Z,36.80
2023-05-09T00:43:36.616Z,30.80
2023-05-09T00:46:04.797Z,29.60
2023-05-09T00:48:32.925Z,32.40
2023-05-09T00:51:01.542Z,25.00
2023-05-09T00:53:31.001Z,28.40
2023-05-09T00:55:59.276Z,30.40
2023-05-09T00:58:27.495Z,31.40
2023-05-09T01:00:55.523Z,36.60
2023-05-09T01:03:23.935Z,35.00
2023-05-09T01:05:57.796Z,35.80
2023-05-09T01:08:34.958Z,34.20
2023-05-09T01:11:07.808Z,32.00
2023-05-09T01:13:39.658Z,37.20
2023-05-09T01:16:09.443Z,34.00
2023-05-09T01:18:41.658Z,36.20
2023-05-09T01:21:11.685Z,38.60
2023-05-09T01:23:55.366Z,36.80
2023-05-09T01:26:27.310Z,33.60
2023-05-09T01:29:03.706Z,40.80
2023-05-09T01:31:36.034Z,42.20
2023-05-09T01:34:06.233Z,40.60
2023-05-09T01:36:36.473Z,30.20
2023-05-09T01:39:05.499Z,36.20
2023-05-09T01:41:35.975Z,33.00
2023-05-09T01:44:06.472Z,40.00
2023-05-09T01:46:36.598Z,35.60
2023-05-09T01:49:04.929Z,34.00
2023-05-09T01:51:34.717Z,41.60
2023-05-09T01:54:03.043Z,43.80
2023-05-09T01:56:32.430Z,39.80
2023-05-09T01:59:02.172Z,29.00
2023-05-09T02:01:31.430Z,42.20
2023-05-09T02:04:01.248Z,36.80
2023-05-09T02:06:30.045Z,34.80
2023-05-09T02:08:59.391Z,27.00
2023-05-09T02:11:27.496Z,32.40
2023-05-09T02:13:55.723Z,30.00
2023-05-09T02:16:23.878Z,42.00
2023-05-09T02:18:52.870Z,41.20
2023-05-09T02:21:22.422Z,39.00
2023-05-09T02:23:50.511Z,39.00
2023-05-09T02:26:18.831Z,27.60
2023-05-09T02:28:47.264Z,40.40
2023-05-09T02:31:15.922Z,24.40
2023-05-09T02:33:44.199Z,39.00
2023-05-09T02:36:12.870Z,39.80
2023-05-09T02:38:43.064Z,37.40
2023-05-09T02:41:13.753Z,37.00
2023-05-09T02:43:42.169Z,39.00
2023-05-09T02:46:10.700Z,36.00
2023-05-09T02:48:38.726Z,36.20
2023-05-09T02:51:06.816Z,36.00
2023-05-09T02:53:35.027Z,34.60
2023-05-09T02:56:04.664Z,33.50
2023-05-09T02:58:32.749Z,35.75
2023-05-09T03:01:00.845Z,29.50
2023-05-09T03:03:29.062Z,34.50
2023-05-09T03:05:57.738Z,33.75
2023-05-09T03:08:25.933Z,32.75
2023-05-09T03:10:53.990Z,33.50
2023-05-09T03:13:24.180Z,32.75
2023-05-09T03:15:52.466Z,33.50
2023-05-09T03:18:20.581Z,37.25
2023-05-09T03:20:48.609Z,22.25
2023-05-09T03:23:17.564Z,28.75
2023-05-09T03:25:45.617Z,26.00
2023-05-09T03:28:13.706Z,31.75
2023-05-09T03:30:43.490Z,31.50
2023-05-09T03:33:14.891Z,29.25
2023-05-09T03:35:42.954Z,28.75
2023-05-09T03:38:11.240Z,26.25
2023-05-09T03:40:39.644Z,26.00
2023-05-09T03:43:10.690Z,26.75
2023-05-09T03:45:39.269Z,16.75
2023-05-09T03:48:11.472Z,26.00
2023-05-09T03:50:46.394Z,20.00
2023-05-09T03:53:16.136Z,28.25
2023-05-09T03:55:46.851Z,22.00
2023-05-09T03:58:19.401Z,29.00
2023-05-09T04:00:48.498Z,23.50
2023-05-09T04:03:23.334Z,21.50
2023-05-09T04:05:53.167Z,19.50
2023-05-09T04:08:35.156Z,18.50
2023-05-09T04:11:05.083Z,20.50
2023-05-09T04:13:35.054Z,13.75
2023-05-09T04:16:08.083Z,20.25
2023-05-09T04:18:40.128Z,23.75
2023-05-09T04:21:08.548Z,26.75
2023-05-09T04:23:39.346Z,23.25
2023-05-09T04:26:09.868Z,20.25
2023-05-09T04:28:38.222Z,15.00
2023-05-09T04:31:06.961Z,21.25
2023-05-09T04:33:39.222Z,21.50
2023-05-09T04:36:07.615Z,19.50
2023-05-09T04:38:35.817Z,21.50
2023-05-09T04:41:06.700Z,19.25
2023-05-09T04:43:35.089Z,17.00
2023-05-09T04:46:03.826Z,10.75
2023-05-09T04:48:33.324Z,16.25
2023-05-09T04:51:02.853Z,12.00
2023-05-09T04:53:30.972Z,13.00
2023-05-09T04:55:59.511Z,11.00
2023-05-09T04:58:44.941Z,13.50
2023-05-09T05:01:13.169Z,13.00
2023-05-09T05:03:41.344Z,9.25
2023-05-09T05:06:28.302Z,11.00
2023-05-09T05:08:57.837Z,9.75
2023-05-09T05:11:26.627Z,7.00
2023-05-09T05:13:54.845Z,5.25
2023-05-09T05:16:23.542Z,0.00
2023-05-09T05:19:08.851Z,6.00
2023-05-09T05:21:40.327Z,7.00
2023-05-09T05:24:09.976Z,5.00
2023-05-09T05:26:38.073Z,7.75
2023-05-09T05:29:06.902Z,7.75
2023-05-09T05:31:35.041Z,8.00
2023-05-09T05:34:04.396Z,6.00
2023-05-09T05:36:33.674Z,8.00
2023-05-09T05:39:01.812Z,8.25
2023-05-09T05:41:31.453Z,8.75
2023-05-09T05:43:59.743Z,4.00
2023-05-09T05:46:28.134Z,4.50
2023-05-09T05:48:56.749Z,2.25
2023-05-09T05:51:26.485Z,8.00
2023-05-09T05:53:54.811Z,2.25
2023-05-09T05:56:23.970Z,3.00
2023-05-09T05:58:54.147Z,6.25
2023-05-09T06:01:22.386Z,2.75
2023-05-09T06:03:54.958Z,2.75
2023-05-09T06:06:43.186Z,2.75
2023-05-09T06:09:29.656Z,4.00
2023-05-09T06:11:57.758Z,3.00
2023-05-09T06:14:28.045Z,1.00
2023-05-09T06:16:56.423Z,2.00
2023-05-09T06:19:24.511Z,1.00
2023-05-09T06:21:52.605Z,1.00
2023-05-09T06:24:34.601Z,1.25
2023-05-09T06:27:05.682Z,2.00
2023-05-09T06:29:35.207Z,2.50
2023-05-09T06:32:03.371Z,1.50
2023-05-09T06:34:31.465Z,1.75
2023-05-09T06:36:59.558Z,0.75
2023-05-09T06:39:27.653Z,0.00
2023-05-09T06:41:55.827Z,2.25
2023-05-09T06:44:32.803Z,3.00
2023-05-09T06:47:02.796Z,2.75
2023-05-09T06:49:31.095Z,4.75
2023-05-09T06:51:59.309Z,3.75
2023-05-09T06:54:27.541Z,4.50
2023-05-09T06:56:55.648Z,4.00
2023-05-09T06:59:23.711Z,4.00
2023-05-09T07:01:51.908Z,3.50
2023-05-09T07:04:21.403Z,2.75
2023-05-09T07:06:49.476Z,3.75
2023-05-09T07:09:20.794Z,4.50
2023-05-09T07:11:48.977Z,4.00
2023-05-09T07:14:17.206Z,2.50
2023-05-09T07:16:48.033Z,2.25
2023-05-09T07:19:16.154Z,3.00
2023-05-09T07:21:46.042Z,3.00
2023-05-09T07:24:14.195Z,2.25
2023-05-09T07:26:42.327Z,1.00
2023-05-09T07:29:10.460Z,3.00
2023-05-09T07:31:38.925Z,2.00
2023-05-09T07:34:07.228Z,2.00
2023-05-09T07:39:08.310Z,3.50
2023-05-09T07:41:36.560Z,4.00
2023-05-09T07:44:04.672Z,2.75
2023-05-09T07:46:32.851Z,3.25
2023-05-09T07:49:00.973Z,3.00
2023-05-09T07:51:29.208Z,1.00
2023-05-09T07:53:57.605Z,2.50
2023-05-09T07:56:45.674Z,2.75
2023-05-09T07:59:13.747Z,3.00
2023-05-09T08:01:42.037Z,3.25
2023-05-09T08:04:10.440Z,3.00
2023-05-09T08:06:38.761Z,3.25
2023-05-09T08:09:07.076Z,4.00
2023-05-09T08:11:36.143Z,3.00
2023-05-09T08:14:23.131Z,3.50
2023-05-09T08:16:51.245Z,1.50
2023-05-09T08:19:21.137Z,2.00
2023-05-09T08:21:49.415Z,2.25
2023-05-09T08:24:17.511Z,2.00
2023-05-09T08:26:46.082Z,1.50
2023-05-09T08:29:16.551Z,3.50
2023-05-09T08:31:44.897Z,3.25
2023-05-09T08:34:12.986Z,2.00
2023-05-09T08:36:41.376Z,3.00
2023-05-09T08:39:10.086Z,2.50
2023-05-09T08:41:38.318Z,1.00
2023-05-09T08:44:27.058Z,3.00
2023-05-09T08:46:57.946Z,3.00
2023-05-09T08:49:26.989Z,1.00
2023-05-09T08:51:55.102Z,2.75
2023-05-09T08:54:23.778Z,2.00
2023-05-09T08:56:52.029Z,3.00
2023-05-09T08:59:20.527Z,2.00
2023-05-09T09:01:50.541Z,3.00
2023-05-09T09:04:18.951Z,3.00
2023-05-09T09:06:47.756Z,2.75
2023-05-09T09:09:33.873Z,3.00
2023-05-09T09:12:03.628Z,2.00
2023-05-09T09:14:32.812Z,2.25
2023-05-09T09:17:02.749Z,2.75
2023-05-09T09:19:32.234Z,3.00
2023-05-09T09:22:01.042Z,2.25
2023-05-09T09:24:29.368Z,3.50
2023-05-09T09:26:57.483Z,3.75
2023-05-09T09:29:28.859Z,3.25
2023-05-09T09:31:57.155Z,4.00
2023-05-09T09:34:26.962Z,3.00
2023-05-09T09:36:55.117Z,2.50
2023-05-09T09:39:23.334Z,2.75
2023-05-09T09:42:09.854Z,3.50
2023-05-09T09:44:37.989Z,2.75
2023-05-09T09:47:15.185Z,3.75
2023-05-09T09:49:49.896Z,2.50
2023-05-09T09:52:25.043Z,3.25
2023-05-09T09:54:56.638Z,2.00
2023-05-09T09:57:45.913Z,2.50
2023-05-09T10:00:16.120Z,2.00
2023-05-09T10:02:51.845Z,3.75
2023-05-09T10:05:23.023Z,2.00
2023-05-09T10:07:53.072Z,1.50
2023-05-09T10:10:21.880Z,3.00
2023-05-09T10:12:51.893Z,3.00
2023-05-09T10:15:21.887Z,2.75
2023-05-09T10:17:52.358Z,3.00
2023-05-09T10:20:22.114Z,4.00
2023-05-09T10:22:50.824Z,1.25
2023-05-09T10:25:21.067Z,3.00
2023-05-09T10:27:50.275Z,3.50
2023-05-09T10:30:19.795Z,2.75
2023-05-09T10:32:50.948Z,3.50
2023-05-09T10:35:19.831Z,5.00
2023-05-09T10:37:49.510Z,2.00
2023-05-09T10:40:20.027Z,2.00
2023-05-09T10:42:48.983Z,2.50
2023-05-09T10:45:17.377Z,2.25
2023-05-09T10:47:46.858Z,3.00
2023-05-09T10:50:15.946Z,3.40
2023-05-09T10:52:59.392Z,2.40
2023-05-09T10:55:37.752Z,1.25
2023-05-09T10:58:19.883Z,3.50
2023-05-09T11:00:48.753Z,2.00
2023-05-09T11:03:19.444Z,3.00
2023-05-09T11:05:49.011Z,2.40
2023-05-09T11:08:25.281Z,2.75
2023-05-09T11:10:55.699Z,4.00
2023-05-09T11:13:25.439Z,3.25
2023-05-09T11:16:12.804Z,3.00
2023-05-09T11:18:56.121Z,2.50
2023-05-09T11:21:25.982Z,2.00
2023-05-09T11:23:55.379Z,2.75
2023-05-09T11:26:29.984Z,2.25
2023-05-09T11:29:00.819Z,3.00
2023-05-09T11:31:29.088Z,2.00
2023-05-09T11:34:04.545Z,3.50
2023-05-09T11:36:33.926Z,4.00
2023-05-09T11:39:06.519Z,4.50
2023-05-09T11:41:43.499Z,3.00
2023-05-09T11:44:15.960Z,0.00
2023-05-09T11:46:44.258Z,3.50
2023-05-09T11:49:12.505Z,2.00
2023-05-09T11:51:40.955Z,4.00
2023-05-09T11:54:09.472Z,3.00
2023-05-09T11:56:37.758Z,3.00
2023-05-09T11:59:07.928Z,4.00
2023-05-09T12:01:37.154Z,3.50
2023-05-09T12:04:07.615Z,4.00
2023-05-09T12:06:35.872Z,2.00
2023-05-09T12:09:04.043Z,4.75
2023-05-09T12:11:33.136Z,3.00
2023-05-09T12:14:01.888Z,5.00
2023-05-09T12:16:31.486Z,4.75
2023-05-09T12:19:00.282Z,6.00
2023-05-09T12:21:30.341Z,4.00
2023-05-09T12:23:58.601Z,4.00
2023-05-09T12:26:27.278Z,4.50
2023-05-09T12:28:55.778Z,5.00
2023-05-09T12:31:24.001Z,5.00
2023-05-09T12:33:53.645Z,5.25
2023-05-09T12:36:22.335Z,6.00
2023-05-09T12:38:53.968Z,1.25
2023-05-09T12:41:37.116Z,3.25
2023-05-09T12:44:10.116Z,4.00
2023-05-09T12:46:38.249Z,2.50
2023-05-09T12:49:07.780Z,4.00
2023-05-09T12:51:36.035Z,3.75
2023-05-09T12:54:04.687Z,3.00
2023-05-09T12:56:36.824Z,3.75
2023-05-09T12:59:04.963Z,3.75
2023-05-09T13:01:33.322Z,4.75
2023-05-09T13:04:02.962Z,4.50
2023-05-09T13:06:32.649Z,5.25
2023-05-09T13:09:02.476Z,4.00
2023-05-09T13:11:30.850Z,4.00
2023-05-09T13:13:59.200Z,4.00
2023-05-09T13:16:27.782Z,4.00
2023-05-09T13:18:55.889Z,4.25
2023-05-09T13:21:24.138Z,3.00
2023-05-09T13:23:53.719Z,5.00
2023-05-09T13:26:22.594Z,3.50
2023-05-09T13:28:50.961Z,4.50
2023-05-09T13:31:19.418Z,4.00
2023-05-09T13:33:49.336Z,3.25
2023-05-09T13:36:19.733Z,4.75
2023-05-09T13:38:47.898Z,3.00
2023-05-09T13:41:20.940Z,6.25
2023-05-09T13:43:49.283Z,2.50
2023-05-09T13:46:17.552Z,5.00
2023-05-09T13:48:47.278Z,6.00
2023-05-09T13:51:15.628Z,5.00
2023-05-09T13:53:43.700Z,5.00
2023-05-09T13:56:11.884Z,6.75
2023-05-09T13:58:41.500Z,5.75
2023-05-09T14:01:09.758Z,3.50
2023-05-09T14:03:38.512Z,4.00
2023-05-09T14:06:06.853Z,4.00
2023-05-09T14:08:34.959Z,5.50
2023-05-09T14:11:03.186Z,5.25
2023-05-09T14:13:32.170Z,4.75
2023-05-09T14:16:01.805Z,4.75
2023-05-09T14:18:29.928Z,5.00
2023-05-09T14:20:58.233Z,4.50
2023-05-09T14:23:26.361Z,3.00
2023-05-09T14:25:55.049Z,4.25
2023-05-09T14:28:23.323Z,3.50
2023-05-09T14:30:52.317Z,4.00
2023-05-09T14:33:22.300Z,4.00
2023-05-09T14:35:50.760Z,5.00
2023-05-09T14:38:18.869Z,5.50
2023-05-09T14:40:47.043Z,5.00
2023-05-09T14:43:15.841Z,5.00
2023-05-09T14:45:43.995Z,4.50
2023-05-09T14:48:13.850Z,5.00
2023-05-09T14:50:45.496Z,6.25
2023-05-09T14:53:14.321Z,5.00
2023-05-09T14:55:42.461Z,5.25
2023-05-09T14:58:13.522Z,3.75
2023-05-09T15:00:41.973Z,5.00
2023-05-09T15:03:10.851Z,5.25
2023-05-09T15:05:39.421Z,6.25
2023-05-09T15:08:09.182Z,5.75
2023-05-09T15:10:37.301Z,5.75
2023-05-09T15:13:05.979Z,4.00
2023-05-09T15:15:38.465Z,5.25
2023-05-09T15:18:10.072Z,5.00
2023-05-09T15:20:38.361Z,4.25
2023-05-09T15:23:07.844Z,4.75
2023-05-09T15:25:37.562Z,5.25
2023-05-09T15:28:07.205Z,4.00
2023-05-09T15:30:38.178Z,5.75
2023-05-09T15:33:06.613Z,5.00
2023-05-09T15:35:34.927Z,7.75
2023-05-09T15:38:03.020Z,5.00
2023-05-09T15:40:31.186Z,5.00
2023-05-09T15:43:07.950Z,5.25
2023-05-09T15:45:45.357Z,4.75
2023-05-09T15:48:13.746Z,6.25
2023-05-09T15:50:43.063Z,5.00
2023-05-09T15:53:11.450Z,6.00
2023-05-09T15:55:39.562Z,4.25
2023-05-09T15:58:11.217Z,6.00
2023-05-09T16:00:39.946Z,6.75
2023-05-09T16:03:08.144Z,10.00
2023-05-09T16:05:36.554Z,6.00
2023-05-09T16:08:04.751Z,8.75
2023-05-09T16:10:34.188Z,7.75
2023-05-09T16:13:03.087Z,8.00
2023-05-09T16:15:33.458Z,9.00
2023-05-09T16:18:01.957Z,26.75
2023-05-09T16:20:30.207Z,25.25
2023-05-09T16:22:58.420Z,13.50
2023-05-09T16:25:26.568Z,14.25
2023-05-09T16:27:54.909Z,8.50
2023-05-09T16:30:23.359Z,11.00
2023-05-09T16:32:52.936Z,11.50
2023-05-09T16:35:21.184Z,12.00
2023-05-09T16:37:49.460Z,14.25
2023-05-09T16:40:18.091Z,16.00
2023-05-09T16:42:46.310Z,16.00
2023-05-09T16:45:14.545Z,16.25
2023-05-09T16:51:13.108Z,17.00
2023-05-09T16:53:41.361Z,23.00
2023-05-09T16:56:11.185Z,26.25
2023-05-09T16:58:39.329Z,27.25
2023-05-09T17:01:07.743Z,30.50
2023-05-09T17:03:35.893Z,28.50
2023-05-09T17:06:04.068Z,38.25
2023-05-09T17:08:33.643Z,39.00
2023-05-09T17:11:01.964Z,38.20
2023-05-09T17:13:30.193Z,43.60
2023-05-09T17:15:58.590Z,42.80
2023-05-09T17:18:36.966Z,46.80
2023-05-09T17:21:06.832Z,46.00
2023-05-09T17:23:36.442Z,36.40
2023-05-09T17:26:04.978Z,42.20
2023-05-09T17:28:33.255Z,33.20
2023-05-09T17:31:03.438Z,41.00
2023-05-09T17:33:31.780Z,42.80
2023-05-09T17:36:00.635Z,38.00
2023-05-09T17:38:28.947Z,37.80
2023-05-09T17:40:58.741Z,40.20
2023-05-09T17:43:28.510Z,35.80
2023-05-09T17:45:56.912Z,38.00
2023-05-09T17:48:25.365Z,38.40
2023-05-09T17:50:53.534Z,37.40
2023-05-09T17:53:21.884Z,39.00
2023-05-09T17:55:50.309Z,33.75
2023-05-09T17:58:20.968Z,25.75
2023-05-09T18:00:49.074Z,25.25
2023-05-09T18:03:17.396Z,26.50
2023-05-09T18:05:45.663Z,27.25
2023-05-09T18:08:13.815Z,28.50
2023-05-09T18:10:42.228Z,19.25
2023-05-09T18:13:11.252Z,28.75
2023-05-09T18:15:42.172Z,24.50
2023-05-09T18:18:14.524Z,30.75
2023-05-09T18:20:46.824Z,26.00
2023-05-09T18:23:16.468Z,33.75
2023-05-09T18:25:46.140Z,37.20
2023-05-09T18:28:15.950Z,36.60
2023-05-09T18:30:47.385Z,33.00
2023-05-09T18:33:16.191Z,30.80
2023-05-09T18:35:44.301Z,37.20
2023-05-09T18:38:12.758Z,36.80
2023-05-09T18:40:40.908Z,32.40
2023-05-09T18:43:09.228Z,35.00
2023-05-09T18:45:37.494Z,37.60
2023-05-09T18:48:07.776Z,34.80
2023-05-09T18:50:36.319Z,30.60
2023-05-09T18:53:04.611Z,33.80
2023-05-09T18:55:32.740Z,36.40
2023-05-09T18:58:00.855Z,38.60
2023-05-09T19:00:29.909Z,39.60
2023-05-09T19:02:58.179Z,37.80
2023-05-09T19:05:28.656Z,36.20
2023-05-09T19:07:56.730Z,41.20
2023-05-09T19:10:25.024Z,43.20
2023-05-09T19:12:53.292Z,42.40
2023-05-09T19:15:23.489Z,44.00
2023-05-09T19:17:51.904Z,46.20
2023-05-09T19:20:20.347Z,45.60
2023-05-09T19:22:51.562Z,42.80
2023-05-09T19:25:20.118Z,45.00
2023-05-09T19:27:48.942Z,54.80
2023-05-09T19:30:17.552Z,54.40
2023-05-09T19:32:46.010Z,56.00
2023-05-09T19:35:14.259Z,55.00
2023-05-09T19:37:42.397Z,53.80
2023-05-09T19:40:12.601Z,53.20
2023-05-09T19:42:42.036Z,51.00
2023-05-09T19:45:10.759Z,53.00
2023-05-09T19:47:38.885Z,54.20
2023-05-09T19:50:07.663Z,49.40
2023-05-09T19:52:37.252Z,53.20
2023-05-09T19:55:06.096Z,55.00
2023-05-09T19:57:54.215Z,51.20
2023-05-09T20:00:22.481Z,49.20
2023-05-09T20:02:51.070Z,49.00
2023-05-09T20:05:19.477Z,49.80
2023-05-09T20:07:47.713Z,45.40
2023-05-09T20:10:16.380Z,47.00
2023-05-09T20:12:45.497Z,45.60
2023-05-09T20:15:15.695Z,44.80
2023-05-09T20:17:44.690Z,44.00
2023-05-09T20:20:13.492Z,46.20
2023-05-09T20:22:42.029Z,45.00
2023-05-09T20:25:10.406Z,47.40
2023-05-09T20:27:39.245Z,49.20
2023-05-09T20:30:08.448Z,44.40
2023-05-09T20:32:38.156Z,44.80
2023-05-09T20:35:06.697Z,46.00
2023-05-09T20:37:37.060Z,43.00
2023-05-09T20:40:06.718Z,43.40
2023-05-09T20:42:35.112Z,39.40
2023-05-09T20:45:03.961Z,36.40
2023-05-09T20:47:32.296Z,29.60
2023-05-09T20:50:02.358Z,38.00
2023-05-09T20:52:31.824Z,32.60
2023-05-09T20:55:00.551Z,41.00
2023-05-09T20:57:28.884Z,40.00
2023-05-09T20:59:57.254Z,47.80
2023-05-09T21:02:25.698Z,50.40
2023-05-09T21:04:54.011Z,58.00
2023-05-09T21:07:23.852Z,56.00
2023-05-09T21:09:52.085Z,54.00
2023-05-09T21:12:21.207Z,47.60
2023-05-09T21:14:50.847Z,41.60
2023-05-09T21:17:19.142Z,41.40
2023-05-09T21:19:51.660Z,44.20
2023-05-09T21:22:20.045Z,43.00
2023-05-09T21:24:50.980Z,44.60
2023-05-09T21:27:19.349Z,41.60
2023-05-09T21:29:49.534Z,44.20
2023-05-09T21:32:17.991Z,52.80
2023-05-09T21:34:48.831Z,46.00
2023-05-09T21:37:17.171Z,47.20
2023-05-09T21:39:45.515Z,46.60
2023-05-09T21:42:15.182Z,48.80
2023-05-09T21:44:43.420Z,44.60
2023-05-09T21:47:11.823Z,45.00
2023-05-09T21:49:40.930Z,63.20
2023-05-09T21:52:09.330Z,48.20
2023-05-09T21:54:37.548Z,55.80
2023-05-09T21:57:05.906Z,55.80
2023-05-09T21:59:35.406Z,56.00
2023-05-09T22:02:03.519Z,48.80
2023-05-09T22:04:31.584Z,47.00
2023-05-09T22:06:59.632Z,42.80
2023-05-09T22:09:28.231Z,49.40
2023-05-09T22:11:56.311Z,43.40
2023-05-09T22:14:24.444Z,43.20
2023-05-09T22:16:54.125Z,54.40
2023-05-09T22:19:22.236Z,30.60
2023-05-09T22:21:50.272Z,41.40
2023-05-09T22:24:18.308Z,50.80
2023-05-09T22:26:46.428Z,46.40
2023-05-09T22:29:16.612Z,44.80
2023-05-09T22:31:44.979Z,49.00
2023-05-09T22:34:14.468Z,47.20
2023-05-09T22:36:42.845Z,47.60
2023-05-09T22:39:11.310Z,49.40
2023-05-09T22:41:39.397Z,46.00
2023-05-09T22:44:08.035Z,32.40
2023-05-09T22:46:36.056Z,44.60
2023-05-09T22:49:04.291Z,40.60
2023-05-09T22:51:33.879Z,38.20
2023-05-09T22:54:01.900Z,50.60
2023-05-09T22:56:29.972Z,42.20
2023-05-09T22:58:58.968Z,44.00
2023-05-09T23:01:28.434Z,47.00
2023-05-09T23:03:56.490Z,43.00
2023-05-09T23:06:24.671Z,40.80
2023-05-09T23:08:54.074Z,43.80
2023-05-09T23:11:23.832Z,48.80
2023-05-09T23:13:52.049Z,48.20
2023-05-09T23:16:20.200Z,49.60
2023-05-09T23:18:48.300Z,49.20
2023-05-09T23:21:16.312Z,42.60
2023-05-09T23:23:45.277Z,48.40
2023-05-09T23:26:14.725Z,44.20
2023-05-09T23:28:42.942Z,47.00
2023-05-09T23:31:11.341Z,51.60
2023-05-09T23:33:39.529Z,46.00
2023-05-09T23:36:08.214Z,47.00
2023-05-09T23:38:36.242Z,50.40
2023-05-09T23:41:04.286Z,51.40
2023-05-09T23:43:34.355Z,51.00
2023-05-09T23:46:02.412Z,46.60
2023-05-09T23:48:30.484Z,44.40
2023-05-09T23:50:58.747Z,58.40
2023-05-09T23:53:26.844Z,60.20
2023-05-09T23:55:54.888Z,63.00
2023-05-09T23:58:22.942Z,73.80
